sensor_id;sensor_type;location;lat;lon;timestamp;P1;durP1;ratioP1;P2;durP2;ratioP2
40981;SDS011;26708;50.304;19.028;2022-10-13T00:00:32;75.78;;;32.83;;
40981;SDS011;26708;50.304;19.028;2022-10-13T00:03:33;67.47;;;29.77;;
40981;SDS011;26708;50.304;19.028;2022-10-13T00:06:34;66.03;;;27.70;;
40981;SDS011;26708;50.304;19.028;2022-10-13T00:09:35;69.28;;;29.35;;
40981;SDS011;26708;50.304;19.028;2022-10-13T00:12:36;59.63;;;25.92;;
40981;SDS011;26708;50.304;19.028;2022-10-13T00:15:39;58.55;;;26.08;;
40981;SDS011;26708;50.304;19.028;2022-10-13T00:18:44;70.88;;;29.42;;
40981;SDS011;26708;50.304;19.028;2022-10-13T00:21:46;64.82;;;29.00;;
40981;SDS011;26708;50.304;19.028;2022-10-13T00:24:50;65.63;;;26.98;;
40981;SDS011;26708;50.304;19.028;2022-10-13T00:27:52;65.50;;;27.70;;
40981;SDS011;26708;50.304;19.028;2022-10-13T00:30:54;61.85;;;28.10;;
40981;SDS011;26708;50.304;19.028;2022-10-13T00:33:59;62.90;;;26.67;;
40981;SDS011;26708;50.304;19.028;2022-10-13T00:37:00;65.20;;;26.85;;
40981;SDS011;26708;50.304;19.028;2022-10-13T00:40:02;56.75;;;25.85;;
40981;SDS011;26708;50.304;19.028;2022-10-13T00:43:05;59.90;;;26.90;;
40981;SDS011;26708;50.304;19.028;2022-10-13T00:46:16;58.80;;;25.90;;
40981;SDS011;26708;50.304;19.028;2022-10-13T00:49:19;62.63;;;26.40;;
40981;SDS011;26708;50.304;19.028;2022-10-13T00:52:20;55.97;;;25.27;;
40981;SDS011;26708;50.304;19.028;2022-10-13T00:55:23;57.60;;;25.88;;
40981;SDS011;26708;50.304;19.028;2022-10-13T00:58:28;58.45;;;26.30;;
40981;SDS011;26708;50.304;19.028;2022-10-13T01:01:32;58.55;;;26.05;;
40981;SDS011;26708;50.304;19.028;2022-10-13T01:04:39;60.17;;;25.90;;
40981;SDS011;26708;50.304;19.028;2022-10-13T01:07:42;55.85;;;24.80;;
40981;SDS011;26708;50.304;19.028;2022-10-13T01:14:06;59.20;;;25.67;;
40981;SDS011;26708;50.304;19.028;2022-10-13T01:17:36;53.05;;;24.58;;
40981;SDS011;26708;50.304;19.028;2022-10-13T01:20:49;59.13;;;26.05;;
40981;SDS011;26708;50.304;19.028;2022-10-13T01:31:02;53.13;;;23.65;;
40981;SDS011;26708;50.304;19.028;2022-10-13T01:34:12;49.83;;;23.88;;
40981;SDS011;26708;50.304;19.028;2022-10-13T01:37:30;53.08;;;24.40;;
40981;SDS011;26708;50.304;19.028;2022-10-13T01:40:40;56.38;;;24.35;;
40981;SDS011;26708;50.304;19.028;2022-10-13T01:43:47;53.78;;;25.00;;
40981;SDS011;26708;50.304;19.028;2022-10-13T01:46:55;57.72;;;24.45;;
40981;SDS011;26708;50.304;19.028;2022-10-13T01:49:56;61.25;;;24.90;;
40981;SDS011;26708;50.304;19.028;2022-10-13T01:53:00;61.70;;;26.00;;
40981;SDS011;26708;50.304;19.028;2022-10-13T01:56:03;56.00;;;25.27;;
40981;SDS011;26708;50.304;19.028;2022-10-13T01:59:07;56.85;;;25.17;;
40981;SDS011;26708;50.304;19.028;2022-10-13T02:02:21;59.58;;;25.35;;
40981;SDS011;26708;50.304;19.028;2022-10-13T02:09:13;54.67;;;24.83;;
40981;SDS011;26708;50.304;19.028;2022-10-13T02:12:25;58.95;;;24.42;;
40981;SDS011;26708;50.304;19.028;2022-10-13T02:15:35;65.28;;;27.00;;
40981;SDS011;26708;50.304;19.028;2022-10-13T02:18:42;58.63;;;25.23;;
40981;SDS011;26708;50.304;19.028;2022-10-13T02:21:43;56.42;;;24.73;;
40981;SDS011;26708;50.304;19.028;2022-10-13T02:24:46;58.08;;;25.80;;
40981;SDS011;26708;50.304;19.028;2022-10-13T02:27:47;59.13;;;25.77;;
40981;SDS011;26708;50.304;19.028;2022-10-13T02:30:48;57.83;;;26.45;;
40981;SDS011;26708;50.304;19.028;2022-10-13T02:33:50;57.88;;;26.60;;
40981;SDS011;26708;50.304;19.028;2022-10-13T02:36:51;53.95;;;25.67;;
40981;SDS011;26708;50.304;19.028;2022-10-13T02:39:52;54.95;;;25.55;;
40981;SDS011;26708;50.304;19.028;2022-10-13T02:42:53;57.28;;;26.75;;
40981;SDS011;26708;50.304;19.028;2022-10-13T02:45:55;58.85;;;26.00;;
40981;SDS011;26708;50.304;19.028;2022-10-13T02:48:55;61.03;;;25.10;;
40981;SDS011;26708;50.304;19.028;2022-10-13T02:52:00;58.70;;;27.23;;
40981;SDS011;26708;50.304;19.028;2022-10-13T02:55:00;54.97;;;25.42;;
40981;SDS011;26708;50.304;19.028;2022-10-13T02:58:01;55.17;;;26.35;;
40981;SDS011;26708;50.304;19.028;2022-10-13T03:01:08;65.18;;;26.70;;
40981;SDS011;26708;50.304;19.028;2022-10-13T03:04:10;55.65;;;26.65;;
40981;SDS011;26708;50.304;19.028;2022-10-13T03:07:11;53.25;;;25.73;;
40981;SDS011;26708;50.304;19.028;2022-10-13T03:10:12;57.83;;;26.60;;
40981;SDS011;26708;50.304;19.028;2022-10-13T03:13:13;63.42;;;25.98;;
40981;SDS011;26708;50.304;19.028;2022-10-13T03:16:14;59.30;;;25.88;;
40981;SDS011;26708;50.304;19.028;2022-10-13T03:19:15;52.58;;;24.85;;
40981;SDS011;26708;50.304;19.028;2022-10-13T03:22:16;55.13;;;24.90;;
40981;SDS011;26708;50.304;19.028;2022-10-13T03:25:19;56.30;;;25.50;;
40981;SDS011;26708;50.304;19.028;2022-10-13T03:28:19;62.20;;;26.17;;
40981;SDS011;26708;50.304;19.028;2022-10-13T03:31:24;60.97;;;25.50;;
40981;SDS011;26708;50.304;19.028;2022-10-13T03:34:27;55.28;;;26.45;;
40981;SDS011;26708;50.304;19.028;2022-10-13T03:37:28;60.03;;;26.55;;
40981;SDS011;26708;50.304;19.028;2022-10-13T03:40:30;68.57;;;29.13;;
40981;SDS011;26708;50.304;19.028;2022-10-13T03:43:30;63.20;;;26.30;;
40981;SDS011;26708;50.304;19.028;2022-10-13T03:46:31;60.22;;;28.95;;
40981;SDS011;26708;50.304;19.028;2022-10-13T03:49:32;62.60;;;28.45;;
40981;SDS011;26708;50.304;19.028;2022-10-13T03:52:33;61.78;;;28.23;;
40981;SDS011;26708;50.304;19.028;2022-10-13T03:55:33;69.70;;;30.73;;
40981;SDS011;26708;50.304;19.028;2022-10-13T03:58:34;72.05;;;34.03;;
40981;SDS011;26708;50.304;19.028;2022-10-13T04:01:35;61.78;;;29.83;;
40981;SDS011;26708;50.304;19.028;2022-10-13T04:04:36;67.55;;;29.88;;
40981;SDS011;26708;50.304;19.028;2022-10-13T04:07:38;64.22;;;28.83;;
40981;SDS011;26708;50.304;19.028;2022-10-13T04:11:01;59.78;;;25.52;;
40981;SDS011;26708;50.304;19.028;2022-10-13T04:14:04;53.45;;;25.05;;
40981;SDS011;26708;50.304;19.028;2022-10-13T04:17:05;62.78;;;26.95;;
40981;SDS011;26708;50.304;19.028;2022-10-13T04:20:06;57.03;;;26.83;;
40981;SDS011;26708;50.304;19.028;2022-10-13T04:23:07;58.72;;;27.58;;
40981;SDS011;26708;50.304;19.028;2022-10-13T04:26:16;66.43;;;27.58;;
40981;SDS011;26708;50.304;19.028;2022-10-13T04:29:19;56.72;;;25.60;;
40981;SDS011;26708;50.304;19.028;2022-10-13T04:32:25;57.63;;;26.55;;
40981;SDS011;26708;50.304;19.028;2022-10-13T04:35:27;55.10;;;26.02;;
40981;SDS011;26708;50.304;19.028;2022-10-13T04:38:28;58.15;;;28.30;;
40981;SDS011;26708;50.304;19.028;2022-10-13T04:41:29;64.60;;;29.27;;
40981;SDS011;26708;50.304;19.028;2022-10-13T04:44:30;62.80;;;27.48;;
40981;SDS011;26708;50.304;19.028;2022-10-13T04:47:30;68.88;;;30.90;;
40981;SDS011;26708;50.304;19.028;2022-10-13T04:50:31;70.00;;;30.08;;
40981;SDS011;26708;50.304;19.028;2022-10-13T04:53:34;70.32;;;31.88;;
40981;SDS011;26708;50.304;19.028;2022-10-13T04:56:35;64.93;;;30.17;;
40981;SDS011;26708;50.304;19.028;2022-10-13T04:59:36;77.72;;;30.95;;
40981;SDS011;26708;50.304;19.028;2022-10-13T05:02:36;71.30;;;30.33;;
40981;SDS011;26708;50.304;19.028;2022-10-13T05:05:38;69.00;;;29.73;;
40981;SDS011;26708;50.304;19.028;2022-10-13T05:08:39;65.05;;;28.42;;
40981;SDS011;26708;50.304;19.028;2022-10-13T05:11:40;68.88;;;27.45;;
40981;SDS011;26708;50.304;19.028;2022-10-13T05:14:41;66.43;;;27.13;;
40981;SDS011;26708;50.304;19.028;2022-10-13T05:17:42;76.50;;;27.40;;
40981;SDS011;26708;50.304;19.028;2022-10-13T05:20:43;71.93;;;26.33;;
40981;SDS011;26708;50.304;19.028;2022-10-13T05:23:44;66.28;;;26.65;;
40981;SDS011;26708;50.304;19.028;2022-10-13T05:26:45;47.65;;;24.17;;
40981;SDS011;26708;50.304;19.028;2022-10-13T05:29:46;61.15;;;27.05;;
40981;SDS011;26708;50.304;19.028;2022-10-13T05:32:46;60.38;;;26.85;;
40981;SDS011;26708;50.304;19.028;2022-10-13T05:35:47;67.45;;;27.42;;
40981;SDS011;26708;50.304;19.028;2022-10-13T05:38:55;75.35;;;30.05;;
40981;SDS011;26708;50.304;19.028;2022-10-13T05:41:57;66.60;;;28.98;;
40981;SDS011;26708;50.304;19.028;2022-10-13T05:44:58;60.58;;;29.25;;
40981;SDS011;26708;50.304;19.028;2022-10-13T05:47:59;66.95;;;29.70;;
40981;SDS011;26708;50.304;19.028;2022-10-13T05:51:02;79.93;;;35.20;;
40981;SDS011;26708;50.304;19.028;2022-10-13T05:54:07;87.40;;;37.15;;
40981;SDS011;26708;50.304;19.028;2022-10-13T05:57:25;86.97;;;36.33;;
40981;SDS011;26708;50.304;19.028;2022-10-13T06:00:30;73.90;;;31.30;;
40981;SDS011;26708;50.304;19.028;2022-10-13T06:03:31;63.22;;;28.92;;
40981;SDS011;26708;50.304;19.028;2022-10-13T06:06:32;57.97;;;27.73;;
40981;SDS011;26708;50.304;19.028;2022-10-13T06:09:34;55.60;;;27.33;;
40981;SDS011;26708;50.304;19.028;2022-10-13T06:12:37;68.85;;;33.35;;
40981;SDS011;26708;50.304;19.028;2022-10-13T06:15:38;61.58;;;29.10;;
40981;SDS011;26708;50.304;19.028;2022-10-13T06:18:39;51.60;;;22.95;;
40981;SDS011;26708;50.304;19.028;2022-10-13T06:21:40;56.75;;;25.73;;
40981;SDS011;26708;50.304;19.028;2022-10-13T06:24:42;55.80;;;25.48;;
40981;SDS011;26708;50.304;19.028;2022-10-13T06:27:43;59.92;;;25.17;;
40981;SDS011;26708;50.304;19.028;2022-10-13T06:30:44;55.20;;;26.95;;
40981;SDS011;26708;50.304;19.028;2022-10-13T06:33:50;53.38;;;28.30;;
40981;SDS011;26708;50.304;19.028;2022-10-13T06:36:51;54.38;;;26.83;;
40981;SDS011;26708;50.304;19.028;2022-10-13T06:39:52;57.80;;;26.63;;
40981;SDS011;26708;50.304;19.028;2022-10-13T06:42:52;69.72;;;27.75;;
40981;SDS011;26708;50.304;19.028;2022-10-13T06:45:56;61.47;;;25.92;;
40981;SDS011;26708;50.304;19.028;2022-10-13T06:48:59;60.28;;;26.55;;
40981;SDS011;26708;50.304;19.028;2022-10-13T06:52:02;58.90;;;28.77;;
40981;SDS011;26708;50.304;19.028;2022-10-13T06:55:04;66.50;;;23.75;;
40981;SDS011;26708;50.304;19.028;2022-10-13T06:58:05;85.95;;;23.20;;
40981;SDS011;26708;50.304;19.028;2022-10-13T07:01:06;92.05;;;24.23;;
40981;SDS011;26708;50.304;19.028;2022-10-13T07:04:08;62.63;;;24.15;;
40981;SDS011;26708;50.304;19.028;2022-10-13T07:07:09;60.30;;;24.90;;
40981;SDS011;26708;50.304;19.028;2022-10-13T07:10:10;61.80;;;24.67;;
40981;SDS011;26708;50.304;19.028;2022-10-13T07:13:12;57.83;;;23.30;;
40981;SDS011;26708;50.304;19.028;2022-10-13T07:16:13;60.63;;;25.40;;
40981;SDS011;26708;50.304;19.028;2022-10-13T07:19:14;57.30;;;25.15;;
40981;SDS011;26708;50.304;19.028;2022-10-13T07:22:16;50.47;;;23.63;;
40981;SDS011;26708;50.304;19.028;2022-10-13T07:25:17;56.78;;;24.70;;
40981;SDS011;26708;50.304;19.028;2022-10-13T07:28:18;48.67;;;24.05;;
40981;SDS011;26708;50.304;19.028;2022-10-13T07:31:19;57.40;;;24.63;;
40981;SDS011;26708;50.304;19.028;2022-10-13T07:34:20;45.13;;;23.88;;
40981;SDS011;26708;50.304;19.028;2022-10-13T07:37:22;56.05;;;24.92;;
40981;SDS011;26708;50.304;19.028;2022-10-13T07:40:23;56.20;;;25.33;;
40981;SDS011;26708;50.304;19.028;2022-10-13T07:43:24;52.33;;;26.92;;
40981;SDS011;26708;50.304;19.028;2022-10-13T07:46:29;60.50;;;27.73;;
40981;SDS011;26708;50.304;19.028;2022-10-13T07:49:30;64.30;;;28.88;;
40981;SDS011;26708;50.304;19.028;2022-10-13T07:52:34;61.00;;;25.88;;
40981;SDS011;26708;50.304;19.028;2022-10-13T07:55:35;48.45;;;25.30;;
40981;SDS011;26708;50.304;19.028;2022-10-13T07:58:37;60.97;;;25.10;;
40981;SDS011;26708;50.304;19.028;2022-10-13T08:01:39;52.42;;;24.08;;
40981;SDS011;26708;50.304;19.028;2022-10-13T08:04:40;46.92;;;18.13;;
40981;SDS011;26708;50.304;19.028;2022-10-13T08:07:41;49.22;;;17.23;;
40981;SDS011;26708;50.304;19.028;2022-10-13T08:10:41;36.22;;;16.02;;
40981;SDS011;26708;50.304;19.028;2022-10-13T08:13:46;71.03;;;17.83;;
40981;SDS011;26708;50.304;19.028;2022-10-13T08:16:54;32.90;;;15.27;;
40981;SDS011;26708;50.304;19.028;2022-10-13T08:19:55;36.50;;;16.20;;
40981;SDS011;26708;50.304;19.028;2022-10-13T08:22:59;30.90;;;14.43;;
40981;SDS011;26708;50.304;19.028;2022-10-13T08:26:00;34.05;;;14.43;;
40981;SDS011;26708;50.304;19.028;2022-10-13T08:29:02;28.98;;;13.85;;
40981;SDS011;26708;50.304;19.028;2022-10-13T08:32:04;44.30;;;14.73;;
40981;SDS011;26708;50.304;19.028;2022-10-13T08:35:05;26.00;;;12.20;;
40981;SDS011;26708;50.304;19.028;2022-10-13T08:38:06;29.98;;;13.15;;
40981;SDS011;26708;50.304;19.028;2022-10-13T08:41:12;28.05;;;14.68;;
40981;SDS011;26708;50.304;19.028;2022-10-13T08:44:39;28.27;;;12.23;;
40981;SDS011;26708;50.304;19.028;2022-10-13T08:47:48;33.92;;;13.07;;
40981;SDS011;26708;50.304;19.028;2022-10-13T08:50:54;23.85;;;12.35;;
40981;SDS011;26708;50.304;19.028;2022-10-13T08:53:58;23.98;;;11.27;;
40981;SDS011;26708;50.304;19.028;2022-10-13T08:56:59;26.35;;;11.73;;
40981;SDS011;26708;50.304;19.028;2022-10-13T09:00:11;24.27;;;10.85;;
40981;SDS011;26708;50.304;19.028;2022-10-13T09:03:19;20.13;;;10.27;;
40981;SDS011;26708;50.304;19.028;2022-10-13T09:06:26;21.60;;;11.25;;
40981;SDS011;26708;50.304;19.028;2022-10-13T09:09:31;21.00;;;9.68;;
40981;SDS011;26708;50.304;19.028;2022-10-13T09:12:32;20.30;;;10.05;;
40981;SDS011;26708;50.304;19.028;2022-10-13T09:15:41;19.98;;;11.23;;
40981;SDS011;26708;50.304;19.028;2022-10-13T09:18:43;22.17;;;9.80;;
40981;SDS011;26708;50.304;19.028;2022-10-13T09:21:49;21.70;;;10.50;;
40981;SDS011;26708;50.304;19.028;2022-10-13T09:28:25;23.83;;;11.43;;
40981;SDS011;26708;50.304;19.028;2022-10-13T09:31:30;24.23;;;9.52;;
40981;SDS011;26708;50.304;19.028;2022-10-13T09:34:32;29.42;;;13.93;;
40981;SDS011;26708;50.304;19.028;2022-10-13T09:37:38;26.25;;;10.73;;
40981;SDS011;26708;50.304;19.028;2022-10-13T09:40:38;21.80;;;11.02;;
40981;SDS011;26708;50.304;19.028;2022-10-13T09:47:02;25.67;;;12.88;;
40981;SDS011;26708;50.304;19.028;2022-10-13T09:53:47;27.10;;;12.32;;
40981;SDS011;26708;50.304;19.028;2022-10-13T09:56:50;22.13;;;11.43;;
40981;SDS011;26708;50.304;19.028;2022-10-13T10:06:19;20.15;;;10.15;;
40981;SDS011;26708;50.304;19.028;2022-10-13T10:09:35;22.88;;;10.23;;
40981;SDS011;26708;50.304;19.028;2022-10-13T10:12:41;17.83;;;8.70;;
40981;SDS011;26708;50.304;19.028;2022-10-13T10:19:16;18.20;;;8.25;;
40981;SDS011;26708;50.304;19.028;2022-10-13T10:26:17;20.05;;;8.90;;
40981;SDS011;26708;50.304;19.028;2022-10-13T10:29:43;21.10;;;9.43;;
40981;SDS011;26708;50.304;19.028;2022-10-13T10:32:53;20.45;;;9.00;;
40981;SDS011;26708;50.304;19.028;2022-10-13T10:36:14;15.45;;;7.82;;
40981;SDS011;26708;50.304;19.028;2022-10-13T10:45:53;18.35;;;7.80;;
40981;SDS011;26708;50.304;19.028;2022-10-13T10:49:11;14.05;;;6.72;;
40981;SDS011;26708;50.304;19.028;2022-10-13T10:52:23;18.25;;;6.38;;
40981;SDS011;26708;50.304;19.028;2022-10-13T11:05:08;16.17;;;6.75;;
40981;SDS011;26708;50.304;19.028;2022-10-13T11:08:24;22.30;;;7.95;;
40981;SDS011;26708;50.304;19.028;2022-10-13T11:11:48;16.73;;;6.93;;
40981;SDS011;26708;50.304;19.028;2022-10-13T11:15:02;13.68;;;6.50;;
40981;SDS011;26708;50.304;19.028;2022-10-13T11:31:47;15.00;;;5.13;;
40981;SDS011;26708;50.304;19.028;2022-10-13T11:34:57;12.57;;;5.03;;
40981;SDS011;26708;50.304;19.028;2022-10-13T11:41:15;14.57;;;5.30;;
40981;SDS011;26708;50.304;19.028;2022-10-13T11:44:33;12.38;;;5.45;;
40981;SDS011;26708;50.304;19.028;2022-10-13T11:57:21;12.93;;;4.70;;
40981;SDS011;26708;50.304;19.028;2022-10-13T12:00:23;15.52;;;5.35;;
40981;SDS011;26708;50.304;19.028;2022-10-13T12:03:34;15.45;;;5.30;;
40981;SDS011;26708;50.304;19.028;2022-10-13T12:06:39;6.57;;;4.40;;
40981;SDS011;26708;50.304;19.028;2022-10-13T12:12:49;7.35;;;3.17;;
40981;SDS011;26708;50.304;19.028;2022-10-13T12:16:00;9.32;;;3.58;;
40981;SDS011;26708;50.304;19.028;2022-10-13T12:19:16;6.88;;;3.78;;
40981;SDS011;26708;50.304;19.028;2022-10-13T12:22:20;9.30;;;3.57;;
40981;SDS011;26708;50.304;19.028;2022-10-13T12:25:25;11.32;;;4.20;;
40981;SDS011;26708;50.304;19.028;2022-10-13T12:31:55;10.50;;;5.22;;
40981;SDS011;26708;50.304;19.028;2022-10-13T12:35:17;11.48;;;5.30;;
40981;SDS011;26708;50.304;19.028;2022-10-13T12:38:19;14.93;;;6.43;;
40981;SDS011;26708;50.304;19.028;2022-10-13T12:41:23;16.60;;;6.93;;
40981;SDS011;26708;50.304;19.028;2022-10-13T12:44:27;11.32;;;6.32;;
40981;SDS011;26708;50.304;19.028;2022-10-13T12:47:49;11.50;;;6.25;;
40981;SDS011;26708;50.304;19.028;2022-10-13T12:50:53;16.20;;;6.25;;
40981;SDS011;26708;50.304;19.028;2022-10-13T12:54:08;13.85;;;6.60;;
40981;SDS011;26708;50.304;19.028;2022-10-13T12:57:30;13.90;;;7.20;;
40981;SDS011;26708;50.304;19.028;2022-10-13T13:00:37;16.10;;;7.57;;
40981;SDS011;26708;50.304;19.028;2022-10-13T13:03:39;15.60;;;7.43;;
40981;SDS011;26708;50.304;19.028;2022-10-13T13:06:55;21.15;;;7.05;;
40981;SDS011;26708;50.304;19.028;2022-10-13T13:13:12;15.98;;;7.88;;
40981;SDS011;26708;50.304;19.028;2022-10-13T13:16:16;17.88;;;8.88;;
40981;SDS011;26708;50.304;19.028;2022-10-13T13:19:21;15.77;;;8.18;;
40981;SDS011;26708;50.304;19.028;2022-10-13T13:22:23;15.57;;;8.02;;
40981;SDS011;26708;50.304;19.028;2022-10-13T13:25:25;15.80;;;7.93;;
40981;SDS011;26708;50.304;19.028;2022-10-13T13:28:27;16.42;;;8.80;;
40981;SDS011;26708;50.304;19.028;2022-10-13T13:31:30;18.85;;;8.38;;
40981;SDS011;26708;50.304;19.028;2022-10-13T13:34:30;21.83;;;9.05;;
40981;SDS011;26708;50.304;19.028;2022-10-13T13:37:36;13.65;;;8.25;;
40981;SDS011;26708;50.304;19.028;2022-10-13T13:40:37;17.10;;;8.43;;
40981;SDS011;26708;50.304;19.028;2022-10-13T13:43:38;16.40;;;8.43;;
40981;SDS011;26708;50.304;19.028;2022-10-13T13:46:40;16.95;;;9.18;;
40981;SDS011;26708;50.304;19.028;2022-10-13T13:49:42;17.23;;;8.77;;
40981;SDS011;26708;50.304;19.028;2022-10-13T13:52:43;16.30;;;9.00;;
40981;SDS011;26708;50.304;19.028;2022-10-13T13:55:47;19.58;;;9.82;;
40981;SDS011;26708;50.304;19.028;2022-10-13T13:58:51;19.63;;;9.65;;
40981;SDS011;26708;50.304;19.028;2022-10-13T14:01:52;17.70;;;9.13;;
40981;SDS011;26708;50.304;19.028;2022-10-13T14:04:56;19.70;;;10.35;;
40981;SDS011;26708;50.304;19.028;2022-10-13T14:07:59;22.63;;;10.30;;
40981;SDS011;26708;50.304;19.028;2022-10-13T14:11:04;18.60;;;10.27;;
40981;SDS011;26708;50.304;19.028;2022-10-13T14:14:07;20.20;;;9.45;;
40981;SDS011;26708;50.304;19.028;2022-10-13T14:17:07;18.75;;;10.48;;
40981;SDS011;26708;50.304;19.028;2022-10-13T14:20:08;18.90;;;11.52;;
40981;SDS011;26708;50.304;19.028;2022-10-13T14:23:11;19.60;;;10.57;;
40981;SDS011;26708;50.304;19.028;2022-10-13T14:26:12;19.00;;;10.20;;
40981;SDS011;26708;50.304;19.028;2022-10-13T14:29:13;20.25;;;10.18;;
40981;SDS011;26708;50.304;19.028;2022-10-13T14:32:14;19.10;;;10.60;;
40981;SDS011;26708;50.304;19.028;2022-10-13T14:35:15;16.23;;;10.38;;
40981;SDS011;26708;50.304;19.028;2022-10-13T14:38:16;18.85;;;10.68;;
40981;SDS011;26708;50.304;19.028;2022-10-13T14:41:18;22.35;;;10.93;;
40981;SDS011;26708;50.304;19.028;2022-10-13T14:44:19;18.67;;;11.30;;
40981;SDS011;26708;50.304;19.028;2022-10-13T14:47:19;20.45;;;9.82;;
40981;SDS011;26708;50.304;19.028;2022-10-13T14:50:20;19.95;;;10.93;;
40981;SDS011;26708;50.304;19.028;2022-10-13T14:53:30;18.58;;;10.45;;
40981;SDS011;26708;50.304;19.028;2022-10-13T14:56:32;22.60;;;10.20;;
40981;SDS011;26708;50.304;19.028;2022-10-13T14:59:34;23.63;;;9.70;;
40981;SDS011;26708;50.304;19.028;2022-10-13T15:02:35;25.15;;;11.05;;
40981;SDS011;26708;50.304;19.028;2022-10-13T15:05:36;21.65;;;10.70;;
40981;SDS011;26708;50.304;19.028;2022-10-13T15:08:37;22.88;;;11.48;;
40981;SDS011;26708;50.304;19.028;2022-10-13T15:15:46;18.52;;;10.68;;
40981;SDS011;26708;50.304;19.028;2022-10-13T15:18:47;24.52;;;11.70;;
40981;SDS011;26708;50.304;19.028;2022-10-13T15:21:48;24.08;;;11.70;;
40981;SDS011;26708;50.304;19.028;2022-10-13T15:24:49;23.30;;;12.45;;
40981;SDS011;26708;50.304;19.028;2022-10-13T15:27:50;25.05;;;13.10;;
40981;SDS011;26708;50.304;19.028;2022-10-13T15:30:51;30.65;;;13.27;;
40981;SDS011;26708;50.304;19.028;2022-10-13T15:33:54;42.85;;;15.52;;
40981;SDS011;26708;50.304;19.028;2022-10-13T15:36:56;30.40;;;16.08;;
40981;SDS011;26708;50.304;19.028;2022-10-13T15:39:57;30.65;;;16.08;;
40981;SDS011;26708;50.304;19.028;2022-10-13T15:46:31;28.05;;;15.55;;
40981;SDS011;26708;50.304;19.028;2022-10-13T15:49:33;29.45;;;16.25;;
40981;SDS011;26708;50.304;19.028;2022-10-13T15:52:37;33.57;;;19.20;;
40981;SDS011;26708;50.304;19.028;2022-10-13T15:55:39;28.15;;;17.92;;
40981;SDS011;26708;50.304;19.028;2022-10-13T15:58:40;39.47;;;17.38;;
40981;SDS011;26708;50.304;19.028;2022-10-13T16:01:40;48.45;;;22.90;;
40981;SDS011;26708;50.304;19.028;2022-10-13T16:04:41;34.42;;;18.38;;
40981;SDS011;26708;50.304;19.028;2022-10-13T16:07:42;41.25;;;21.17;;
40981;SDS011;26708;50.304;19.028;2022-10-13T16:10:43;51.67;;;21.77;;
40981;SDS011;26708;50.304;19.028;2022-10-13T16:13:48;56.38;;;22.83;;
40981;SDS011;26708;50.304;19.028;2022-10-13T16:16:51;46.08;;;21.52;;
40981;SDS011;26708;50.304;19.028;2022-10-13T16:19:51;51.90;;;24.48;;
40981;SDS011;26708;50.304;19.028;2022-10-13T16:22:56;48.65;;;25.50;;
40981;SDS011;26708;50.304;19.028;2022-10-13T16:25:57;62.10;;;25.45;;
40981;SDS011;26708;50.304;19.028;2022-10-13T16:28:58;55.22;;;25.70;;
40981;SDS011;26708;50.304;19.028;2022-10-13T16:31:59;52.83;;;26.73;;
40981;SDS011;26708;50.304;19.028;2022-10-13T16:35:00;65.70;;;28.65;;
40981;SDS011;26708;50.304;19.028;2022-10-13T16:38:01;73.05;;;30.25;;
40981;SDS011;26708;50.304;19.028;2022-10-13T16:41:02;88.93;;;33.55;;
40981;SDS011;26708;50.304;19.028;2022-10-13T16:44:05;74.50;;;31.75;;
40981;SDS011;26708;50.304;19.028;2022-10-13T16:47:06;74.10;;;30.38;;
40981;SDS011;26708;50.304;19.028;2022-10-13T16:50:07;67.13;;;30.15;;
40981;SDS011;26708;50.304;19.028;2022-10-13T16:53:11;65.22;;;28.40;;
40981;SDS011;26708;50.304;19.028;2022-10-13T16:56:13;61.83;;;28.10;;
40981;SDS011;26708;50.304;19.028;2022-10-13T16:59:14;63.63;;;27.40;;
40981;SDS011;26708;50.304;19.028;2022-10-13T17:02:15;56.47;;;26.35;;
40981;SDS011;26708;50.304;19.028;2022-10-13T17:05:16;53.67;;;24.55;;
40981;SDS011;26708;50.304;19.028;2022-10-13T17:08:17;41.97;;;20.90;;
40981;SDS011;26708;50.304;19.028;2022-10-13T17:14:51;54.90;;;27.60;;
40981;SDS011;26708;50.304;19.028;2022-10-13T17:17:52;49.63;;;26.83;;
40981;SDS011;26708;50.304;19.028;2022-10-13T17:20:54;50.33;;;26.92;;
40981;SDS011;26708;50.304;19.028;2022-10-13T17:23:56;50.38;;;26.70;;
40981;SDS011;26708;50.304;19.028;2022-10-13T17:30:34;44.40;;;25.35;;
40981;SDS011;26708;50.304;19.028;2022-10-13T17:33:36;47.35;;;23.10;;
40981;SDS011;26708;50.304;19.028;2022-10-13T17:36:38;51.50;;;23.17;;
40981;SDS011;26708;50.304;19.028;2022-10-13T17:39:42;46.35;;;22.98;;
40981;SDS011;26708;50.304;19.028;2022-10-13T17:42:42;50.00;;;22.95;;
40981;SDS011;26708;50.304;19.028;2022-10-13T17:45:43;50.63;;;24.45;;
40981;SDS011;26708;50.304;19.028;2022-10-13T17:48:44;44.00;;;23.50;;
40981;SDS011;26708;50.304;19.028;2022-10-13T17:51:49;54.05;;;24.08;;
40981;SDS011;26708;50.304;19.028;2022-10-13T17:54:52;56.58;;;27.20;;
40981;SDS011;26708;50.304;19.028;2022-10-13T17:57:52;65.18;;;28.90;;
40981;SDS011;26708;50.304;19.028;2022-10-13T18:00:54;61.55;;;31.10;;
40981;SDS011;26708;50.304;19.028;2022-10-13T18:03:57;66.90;;;30.73;;
40981;SDS011;26708;50.304;19.028;2022-10-13T18:06:59;71.60;;;32.95;;
40981;SDS011;26708;50.304;19.028;2022-10-13T18:10:01;70.28;;;33.85;;
40981;SDS011;26708;50.304;19.028;2022-10-13T18:13:04;68.72;;;32.85;;
40981;SDS011;26708;50.304;19.028;2022-10-13T18:16:07;72.90;;;33.13;;
40981;SDS011;26708;50.304;19.028;2022-10-13T18:19:14;72.72;;;34.70;;
40981;SDS011;26708;50.304;19.028;2022-10-13T18:22:15;75.50;;;34.40;;
40981;SDS011;26708;50.304;19.028;2022-10-13T18:25:17;73.40;;;34.92;;
40981;SDS011;26708;50.304;19.028;2022-10-13T18:28:20;80.68;;;34.03;;
40981;SDS011;26708;50.304;19.028;2022-10-13T18:31:22;74.60;;;33.75;;
40981;SDS011;26708;50.304;19.028;2022-10-13T18:34:24;70.57;;;32.90;;
40981;SDS011;26708;50.304;19.028;2022-10-13T18:37:25;74.65;;;34.70;;
40981;SDS011;26708;50.304;19.028;2022-10-13T18:40:25;70.43;;;33.97;;
40981;SDS011;26708;50.304;19.028;2022-10-13T18:43:28;75.07;;;34.13;;
40981;SDS011;26708;50.304;19.028;2022-10-13T18:46:33;74.82;;;35.17;;
40981;SDS011;26708;50.304;19.028;2022-10-13T18:52:36;71.40;;;33.72;;
40981;SDS011;26708;50.304;19.028;2022-10-13T18:55:37;67.25;;;33.20;;
40981;SDS011;26708;50.304;19.028;2022-10-13T18:58:42;65.17;;;30.37;;
40981;SDS011;26708;50.304;19.028;2022-10-13T19:01:43;71.82;;;33.13;;
40981;SDS011;26708;50.304;19.028;2022-10-13T19:04:44;72.13;;;33.67;;
40981;SDS011;26708;50.304;19.028;2022-10-13T19:07:44;69.80;;;33.70;;
40981;SDS011;26708;50.304;19.028;2022-10-13T19:10:45;68.82;;;30.92;;
40981;SDS011;26708;50.304;19.028;2022-10-13T19:13:47;66.85;;;32.45;;
40981;SDS011;26708;50.304;19.028;2022-10-13T19:16:49;64.90;;;32.45;;
40981;SDS011;26708;50.304;19.028;2022-10-13T19:19:50;57.65;;;31.63;;
40981;SDS011;26708;50.304;19.028;2022-10-13T19:22:51;67.10;;;32.08;;
40981;SDS011;26708;50.304;19.028;2022-10-13T19:26:08;66.82;;;33.72;;
40981;SDS011;26708;50.304;19.028;2022-10-13T19:29:14;67.13;;;32.38;;